sensor_id;sensor_type;location;lat;lon;timestamp;P1;durP1;ratioP1;P2;durP2;ratioP2
26562;SDS011;14217;50.986;5.826;2024-02-23T00:01:26;0.73;;;0.10;;
26562;SDS011;14217;50.986;5.826;2024-02-23T00:06:28;0.30;;;0.10;;
26562;SDS011;14217;50.986;5.826;2024-02-23T00:11:30;0.10;;;0.03;;
26562;SDS011;14217;50.986;5.826;2024-02-23T00:16:39;0.65;;;0.20;;
26562;SDS011;14217;50.986;5.826;2024-02-23T00:21:42;0.22;;;0.22;;
26562;SDS011;14217;50.986;5.826;2024-02-23T00:26:44;0.10;;;0.10;;
26562;SDS011;14217;50.986;5.826;2024-02-23T00:31:47;0.30;;;0.10;;
26562;SDS011;14217;50.986;5.826;2024-02-23T00:36:49;0.82;;;0.10;;
26562;SDS011;14217;50.986;5.826;2024-02-23T00:41:52;0.40;;;0.10;;
26562;SDS011;14217;50.986;5.826;2024-02-23T00:46:54;0.05;;;0.05;;
26562;SDS011;14217;50.986;5.826;2024-02-23T00:51:56;0.20;;;0.08;;
26562;SDS011;14217;50.986;5.826;2024-02-23T00:56:58;0.00;;;0.00;;
26562;SDS011;14217;50.986;5.826;2024-02-23T01:02:01;0.45;;;0.10;;
26562;SDS011;14217;50.986;5.826;2024-02-23T01:07:03;0.20;;;0.00;;
26562;SDS011;14217;50.986;5.826;2024-02-23T01:12:05;1.00;;;0.25;;
26562;SDS011;14217;50.986;5.826;2024-02-23T01:17:07;0.20;;;0.17;;
26562;SDS011;14217;50.986;5.826;2024-02-23T01:22:10;0.03;;;0.03;;
26562;SDS011;14217;50.986;5.826;2024-02-23T01:27:12;0.00;;;0.00;;
26562;SDS011;14217;50.986;5.826;2024-02-23T01:32:14;0.45;;;0.13;;
26562;SDS011;14217;50.986;5.826;2024-02-23T01:37:16;0.82;;;0.10;;
26562;SDS011;14217;50.986;5.826;2024-02-23T01:42:18;0.10;;;0.10;;
26562;SDS011;14217;50.986;5.826;2024-02-23T01:47:21;0.35;;;0.03;;
26562;SDS011;14217;50.986;5.826;2024-02-23T01:52:23;0.38;;;0.10;;
26562;SDS011;14217;50.986;5.826;2024-02-23T01:57:25;1.25;;;0.20;;
26562;SDS011;14217;50.986;5.826;2024-02-23T02:02:47;0.03;;;0.03;;
26562;SDS011;14217;50.986;5.826;2024-02-23T02:07:50;0.10;;;0.03;;
26562;SDS011;14217;50.986;5.826;2024-02-23T02:13:01;0.75;;;0.10;;
26562;SDS011;14217;50.986;5.826;2024-02-23T02:18:04;1.02;;;0.20;;
26562;SDS011;14217;50.986;5.826;2024-02-23T02:23:06;0.75;;;0.10;;
26562;SDS011;14217;50.986;5.826;2024-02-23T02:28:09;0.30;;;0.20;;
26562;SDS011;14217;50.986;5.826;2024-02-23T02:33:11;0.35;;;0.22;;
26562;SDS011;14217;50.986;5.826;2024-02-23T02:38:13;0.32;;;0.10;;
26562;SDS011;14217;50.986;5.826;2024-02-23T02:43:15;0.52;;;0.05;;
26562;SDS011;14217;50.986;5.826;2024-02-23T02:48:18;0.55;;;0.22;;
26562;SDS011;14217;50.986;5.826;2024-02-23T02:53:20;0.30;;;0.20;;
26562;SDS011;14217;50.986;5.826;2024-02-23T02:58:22;0.93;;;0.20;;
26562;SDS011;14217;50.986;5.826;2024-02-23T03:03:25;1.17;;;0.13;;
26562;SDS011;14217;50.986;5.826;2024-02-23T03:08:27;0.50;;;0.10;;
26562;SDS011;14217;50.986;5.826;2024-02-23T03:13:29;0.28;;;0.20;;
26562;SDS011;14217;50.986;5.826;2024-02-23T03:18:33;0.28;;;0.05;;
26562;SDS011;14217;50.986;5.826;2024-02-23T03:23:38;0.20;;;0.20;;
26562;SDS011;14217;50.986;5.826;2024-02-23T03:28:40;1.10;;;0.10;;
26562;SDS011;14217;50.986;5.826;2024-02-23T03:33:42;0.40;;;0.10;;
26562;SDS011;14217;50.986;5.826;2024-02-23T03:38:44;0.55;;;0.30;;
26562;SDS011;14217;50.986;5.826;2024-02-23T03:43:46;0.15;;;0.10;;
26562;SDS011;14217;50.986;5.826;2024-02-23T03:48:48;0.13;;;0.08;;
26562;SDS011;14217;50.986;5.826;2024-02-23T03:53:51;0.10;;;0.10;;
26562;SDS011;14217;50.986;5.826;2024-02-23T03:58:53;0.17;;;0.13;;
26562;SDS011;14217;50.986;5.826;2024-02-23T04:03:55;1.15;;;0.17;;
26562;SDS011;14217;50.986;5.826;2024-02-23T04:08:57;2.47;;;0.38;;
26562;SDS011;14217;50.986;5.826;2024-02-23T04:13:59;0.88;;;0.20;;
26562;SDS011;14217;50.986;5.826;2024-02-23T04:19:02;0.17;;;0.10;;
26562;SDS011;14217;50.986;5.826;2024-02-23T04:24:04;2.65;;;0.38;;
26562;SDS011;14217;50.986;5.826;2024-02-23T04:29:08;0.30;;;0.10;;
26562;SDS011;14217;50.986;5.826;2024-02-23T04:34:10;0.32;;;0.28;;
26562;SDS011;14217;50.986;5.826;2024-02-23T04:39:12;0.43;;;0.17;;
26562;SDS011;14217;50.986;5.826;2024-02-23T04:44:14;0.60;;;0.30;;
26562;SDS011;14217;50.986;5.826;2024-02-23T04:49:16;0.50;;;0.13;;
26562;SDS011;14217;50.986;5.826;2024-02-23T04:54:18;0.25;;;0.10;;
26562;SDS011;14217;50.986;5.826;2024-02-23T04:59:21;1.50;;;0.30;;
26562;SDS011;14217;50.986;5.826;2024-02-23T05:04:23;0.70;;;0.38;;
26562;SDS011;14217;50.986;5.826;2024-02-23T05:09:25;1.30;;;0.30;;
26562;SDS011;14217;50.986;5.826;2024-02-23T05:14:27;0.20;;;0.20;;
26562;SDS011;14217;50.986;5.826;2024-02-23T05:19:29;0.88;;;0.13;;
26562;SDS011;14217;50.986;5.826;2024-02-23T05:24:31;0.88;;;0.20;;
26562;SDS011;14217;50.986;5.826;2024-02-23T05:29:33;0.10;;;0.10;;
26562;SDS011;14217;50.986;5.826;2024-02-23T05:34:35;0.38;;;0.10;;
26562;SDS011;14217;50.986;5.826;2024-02-23T05:39:38;1.20;;;0.30;;
26562;SDS011;14217;50.986;5.826;2024-02-23T05:44:43;0.70;;;0.20;;
26562;SDS011;14217;50.986;5.826;2024-02-23T05:49:45;0.95;;;0.20;;
26562;SDS011;14217;50.986;5.826;2024-02-23T05:54:48;0.40;;;0.40;;
26562;SDS011;14217;50.986;5.826;2024-02-23T05:59:53;0.68;;;0.20;;
26562;SDS011;14217;50.986;5.826;2024-02-23T06:04:55;0.28;;;0.13;;
26562;SDS011;14217;50.986;5.826;2024-02-23T06:09:57;1.35;;;0.30;;
26562;SDS011;14217;50.986;5.826;2024-02-23T06:14:59;0.20;;;0.20;;
26562;SDS011;14217;50.986;5.826;2024-02-23T06:20:01;0.08;;;0.08;;
26562;SDS011;14217;50.986;5.826;2024-02-23T06:25:06;1.15;;;0.22;;
26562;SDS011;14217;50.986;5.826;2024-02-23T06:30:09;0.93;;;0.20;;
26562;SDS011;14217;50.986;5.826;2024-02-23T06:35:12;0.63;;;0.20;;
26562;SDS011;14217;50.986;5.826;2024-02-23T06:40:15;1.02;;;0.20;;
26562;SDS011;14217;50.986;5.826;2024-02-23T06:45:17;0.52;;;0.10;;
26562;SDS011;14217;50.986;5.826;2024-02-23T06:50:20;1.85;;;0.10;;
26562;SDS011;14217;50.986;5.826;2024-02-23T06:55:23;0.32;;;0.22;;
26562;SDS011;14217;50.986;5.826;2024-02-23T07:00:25;0.25;;;0.13;;
26562;SDS011;14217;50.986;5.826;2024-02-23T07:05:27;0.77;;;0.15;;
26562;SDS011;14217;50.986;5.826;2024-02-23T07:10:29;0.32;;;0.20;;
26562;SDS011;14217;50.986;5.826;2024-02-23T07:15:31;0.30;;;0.13;;
26562;SDS011;14217;50.986;5.826;2024-02-23T07:20:37;0.32;;;0.20;;
26562;SDS011;14217;50.986;5.826;2024-02-23T07:25:40;0.60;;;0.28;;
26562;SDS011;14217;50.986;5.826;2024-02-23T07:30:42;0.40;;;0.25;;
26562;SDS011;14217;50.986;5.826;2024-02-23T07:35:44;0.30;;;0.20;;
26562;SDS011;14217;50.986;5.826;2024-02-23T07:40:47;0.10;;;0.10;;
26562;SDS011;14217;50.986;5.826;2024-02-23T07:45:49;0.22;;;0.20;;
26562;SDS011;14217;50.986;5.826;2024-02-23T07:50:51;0.60;;;0.30;;
26562;SDS011;14217;50.986;5.826;2024-02-23T07:55:53;1.00;;;0.30;;
26562;SDS011;14217;50.986;5.826;2024-02-23T08:00:55;0.95;;;0.20;;
26562;SDS011;14217;50.986;5.826;2024-02-23T08:05:57;1.58;;;0.15;;
26562;SDS011;14217;50.986;5.826;2024-02-23T08:11:04;1.95;;;0.80;;
26562;SDS011;14217;50.986;5.826;2024-02-23T08:16:06;1.98;;;0.80;;
26562;SDS011;14217;50.986;5.826;2024-02-23T08:21:09;1.85;;;0.32;;
26562;SDS011;14217;50.986;5.826;2024-02-23T08:26:12;5.90;;;0.40;;
26562;SDS011;14217;50.986;5.826;2024-02-23T08:31:14;2.03;;;0.55;;
26562;SDS011;14217;50.986;5.826;2024-02-23T08:36:16;2.88;;;0.60;;
26562;SDS011;14217;50.986;5.826;2024-02-23T08:41:18;0.90;;;0.43;;
26562;SDS011;14217;50.986;5.826;2024-02-23T08:46:20;2.20;;;0.30;;
26562;SDS011;14217;50.986;5.826;2024-02-23T08:51:22;1.10;;;0.20;;
26562;SDS011;14217;50.986;5.826;2024-02-23T08:56:24;6.40;;;0.70;;
26562;SDS011;14217;50.986;5.826;2024-02-23T09:01:26;2.83;;;0.70;;
26562;SDS011;14217;50.986;5.826;2024-02-23T09:06:28;1.77;;;0.60;;
26562;SDS011;14217;50.986;5.826;2024-02-23T09:11:31;2.08;;;0.60;;
26562;SDS011;14217;50.986;5.826;2024-02-23T09:16:33;6.78;;;0.80;;
26562;SDS011;14217;50.986;5.826;2024-02-23T09:21:37;0.90;;;0.40;;
26562;SDS011;14217;50.986;5.826;2024-02-23T09:26:39;3.65;;;0.52;;
26562;SDS011;14217;50.986;5.826;2024-02-23T09:31:41;1.92;;;0.90;;
26562;SDS011;14217;50.986;5.826;2024-02-23T09:36:43;6.75;;;1.00;;
26562;SDS011;14217;50.986;5.826;2024-02-23T09:41:52;2.50;;;0.73;;
26562;SDS011;14217;50.986;5.826;2024-02-23T09:46:55;7.85;;;0.50;;
26562;SDS011;14217;50.986;5.826;2024-02-23T09:51:58;2.13;;;0.52;;
26562;SDS011;14217;50.986;5.826;2024-02-23T09:57:00;1.67;;;0.63;;
26562;SDS011;14217;50.986;5.826;2024-02-23T10:02:08;0.68;;;0.50;;
26562;SDS011;14217;50.986;5.826;2024-02-23T10:07:14;1.67;;;0.43;;
26562;SDS011;14217;50.986;5.826;2024-02-23T10:12:20;0.82;;;0.30;;
26562;SDS011;14217;50.986;5.826;2024-02-23T10:17:22;3.38;;;0.40;;
26562;SDS011;14217;50.986;5.826;2024-02-23T10:22:24;9.27;;;1.20;;
26562;SDS011;14217;50.986;5.826;2024-02-23T10:27:26;15.95;;;2.17;;
26562;SDS011;14217;50.986;5.826;2024-02-23T10:32:29;10.52;;;2.53;;
26562;SDS011;14217;50.986;5.826;2024-02-23T10:37:34;21.80;;;1.58;;
26562;SDS011;14217;50.986;5.826;2024-02-23T10:42:36;4.03;;;0.77;;
26562;SDS011;14217;50.986;5.826;2024-02-23T10:47:40;16.67;;;1.30;;
26562;SDS011;14217;50.986;5.826;2024-02-23T10:52:43;7.70;;;1.10;;
26562;SDS011;14217;50.986;5.826;2024-02-23T10:57:45;7.07;;;1.20;;
26562;SDS011;14217;50.986;5.826;2024-02-23T11:02:50;16.05;;;1.70;;
26562;SDS011;14217;50.986;5.826;2024-02-23T11:07:57;6.03;;;1.50;;
26562;SDS011;14217;50.986;5.826;2024-02-23T11:13:00;4.00;;;0.73;;
26562;SDS011;14217;50.986;5.826;2024-02-23T11:18:02;3.75;;;1.00;;
26562;SDS011;14217;50.986;5.826;2024-02-23T11:23:12;3.13;;;0.95;;
26562;SDS011;14217;50.986;5.826;2024-02-23T11:28:23;4.60;;;0.77;;
26562;SDS011;14217;50.986;5.826;2024-02-23T11:33:26;7.13;;;1.13;;
26562;SDS011;14217;50.986;5.826;2024-02-23T11:38:29;6.07;;;0.57;;
26562;SDS011;14217;50.986;5.826;2024-02-23T11:43:33;1.48;;;0.63;;
26562;SDS011;14217;50.986;5.826;2024-02-23T11:48:36;6.75;;;0.65;;
26562;SDS011;14217;50.986;5.826;2024-02-23T11:53:39;2.42;;;0.40;;
26562;SDS011;14217;50.986;5.826;2024-02-23T11:58:41;2.72;;;0.80;;
26562;SDS011;14217;50.986;5.826;2024-02-23T12:03:43;0.30;;;0.30;;
26562;SDS011;14217;50.986;5.826;2024-02-23T12:08:46;2.83;;;0.30;;
26562;SDS011;14217;50.986;5.826;2024-02-23T12:13:48;0.93;;;0.32;;
26562;SDS011;14217;50.986;5.826;2024-02-23T12:18:53;1.55;;;0.55;;
26562;SDS011;14217;50.986;5.826;2024-02-23T12:23:57;1.75;;;0.52;;
26562;SDS011;14217;50.986;5.826;2024-02-23T12:29:00;2.13;;;0.28;;
26562;SDS011;14217;50.986;5.826;2024-02-23T12:34:04;0.90;;;0.30;;
26562;SDS011;14217;50.986;5.826;2024-02-23T12:39:06;0.38;;;0.35;;
26562;SDS011;14217;50.986;5.826;2024-02-23T12:44:09;0.55;;;0.22;;
26562;SDS011;14217;50.986;5.826;2024-02-23T12:49:12;2.45;;;0.73;;
26562;SDS011;14217;50.986;5.826;2024-02-23T12:54:14;0.65;;;0.30;;
26562;SDS011;14217;50.986;5.826;2024-02-23T12:59:16;1.20;;;0.40;;
26562;SDS011;14217;50.986;5.826;2024-02-23T13:04:19;0.75;;;0.20;;
26562;SDS011;14217;50.986;5.826;2024-02-23T13:09:21;1.65;;;0.75;;
26562;SDS011;14217;50.986;5.826;2024-02-23T13:14:24;0.20;;;0.20;;
26562;SDS011;14217;50.986;5.826;2024-02-23T13:19:26;2.42;;;0.60;;
26562;SDS011;14217;50.986;5.826;2024-02-23T13:24:28;0.70;;;0.28;;
26562;SDS011;14217;50.986;5.826;2024-02-23T13:29:30;0.93;;;0.30;;
26562;SDS011;14217;50.986;5.826;2024-02-23T13:34:33;1.30;;;0.25;;
26562;SDS011;14217;50.986;5.826;2024-02-23T13:39:35;0.85;;;0.30;;
26562;SDS011;14217;50.986;5.826;2024-02-23T13:44:37;2.08;;;0.20;;
26562;SDS011;14217;50.986;5.826;2024-02-23T13:49:39;1.58;;;0.57;;
26562;SDS011;14217;50.986;5.826;2024-02-23T13:54:41;0.40;;;0.30;;
26562;SDS011;14217;50.986;5.826;2024-02-23T13:59:44;1.27;;;0.35;;
26562;SDS011;14217;50.986;5.826;2024-02-23T14:04:46;9.73;;;0.88;;
26562;SDS011;14217;50.986;5.826;2024-02-23T14:09:49;1.35;;;0.45;;
26562;SDS011;14217;50.986;5.826;2024-02-23T14:14:51;3.95;;;1.42;;
26562;SDS011;14217;50.986;5.826;2024-02-23T14:19:53;3.40;;;0.63;;
26562;SDS011;14217;50.986;5.826;2024-02-23T14:24:55;3.92;;;0.43;;
26562;SDS011;14217;50.986;5.826;2024-02-23T14:29:58;0.82;;;0.20;;
26562;SDS011;14217;50.986;5.826;2024-02-23T14:35:03;1.85;;;0.52;;
26562;SDS011;14217;50.986;5.826;2024-02-23T14:40:05;0.25;;;0.25;;
26562;SDS011;14217;50.986;5.826;2024-02-23T14:45:08;1.80;;;0.40;;
26562;SDS011;14217;50.986;5.826;2024-02-23T14:50:11;1.02;;;0.30;;
26562;SDS011;14217;50.986;5.826;2024-02-23T14:55:13;0.50;;;0.35;;
26562;SDS011;14217;50.986;5.826;2024-02-23T15:00:15;0.90;;;0.30;;
26562;SDS011;14217;50.986;5.826;2024-02-23T15:05:18;0.98;;;0.20;;
26562;SDS011;14217;50.986;5.826;2024-02-23T15:10:20;0.80;;;0.28;;
26562;SDS011;14217;50.986;5.826;2024-02-23T15:15:23;2.80;;;0.82;;
26562;SDS011;14217;50.986;5.826;2024-02-23T15:20:25;0.47;;;0.30;;
26562;SDS011;14217;50.986;5.826;2024-02-23T15:25:27;0.52;;;0.10;;
26562;SDS011;14217;50.986;5.826;2024-02-23T15:30:29;0.38;;;0.20;;
26562;SDS011;14217;50.986;5.826;2024-02-23T15:35:32;0.82;;;0.17;;
26562;SDS011;14217;50.986;5.826;2024-02-23T15:40:36;0.77;;;0.57;;
26562;SDS011;14217;50.986;5.826;2024-02-23T15:45:38;1.00;;;0.38;;
26562;SDS011;14217;50.986;5.826;2024-02-23T15:50:40;0.43;;;0.20;;
26562;SDS011;14217;50.986;5.826;2024-02-23T15:56:02;0.38;;;0.20;;
26562;SDS011;14217;50.986;5.826;2024-02-23T16:01:05;1.80;;;0.10;;
26562;SDS011;14217;50.986;5.826;2024-02-23T16:06:07;0.30;;;0.25;;
26562;SDS011;14217;50.986;5.826;2024-02-23T16:11:10;1.35;;;0.20;;
26562;SDS011;14217;50.986;5.826;2024-02-23T16:16:13;1.08;;;0.10;;
26562;SDS011;14217;50.986;5.826;2024-02-23T16:21:15;1.30;;;0.30;;
26562;SDS011;14217;50.986;5.826;2024-02-23T16:26:18;0.60;;;0.45;;
26562;SDS011;14217;50.986;5.826;2024-02-23T16:31:20;1.85;;;0.75;;
26562;SDS011;14217;50.986;5.826;2024-02-23T16:36:21;2.00;;;0.22;;
26562;SDS011;14217;50.986;5.826;2024-02-23T16:41:24;0.10;;;0.10;;
26562;SDS011;14217;50.986;5.826;2024-02-23T16:46:26;1.27;;;0.13;;
26562;SDS011;14217;50.986;5.826;2024-02-23T16:51:29;0.47;;;0.20;;
26562;SDS011;14217;50.986;5.826;2024-02-23T16:56:31;1.40;;;0.40;;
26562;SDS011;14217;50.986;5.826;2024-02-23T17:01:33;1.40;;;0.40;;
26562;SDS011;14217;50.986;5.826;2024-02-23T17:06:35;0.20;;;0.10;;
26562;SDS011;14217;50.986;5.826;2024-02-23T17:11:37;1.35;;;0.20;;
26562;SDS011;14217;50.986;5.826;2024-02-23T17:16:40;0.45;;;0.30;;
26562;SDS011;14217;50.986;5.826;2024-02-23T17:21:42;0.20;;;0.20;;
26562;SDS011;14217;50.986;5.826;2024-02-23T17:26:44;0.10;;;0.10;;
26562;SDS011;14217;50.986;5.826;2024-02-23T17:31:46;0.32;;;0.20;;
26562;SDS011;14217;50.986;5.826;2024-02-23T17:36:48;0.93;;;0.28;;
26562;SDS011;14217;50.986;5.826;2024-02-23T17:41:50;1.15;;;0.38;;
26562;SDS011;14217;50.986;5.826;2024-02-23T17:46:53;0.32;;;0.10;;
26562;SDS011;14217;50.986;5.826;2024-02-23T17:51:55;1.42;;;0.20;;
26562;SDS011;14217;50.986;5.826;2024-02-23T17:56:57;0.40;;;0.20;;
26562;SDS011;14217;50.986;5.826;2024-02-23T18:02:00;0.98;;;0.28;;
26562;SDS011;14217;50.986;5.826;2024-02-23T18:07:03;0.22;;;0.20;;
26562;SDS011;14217;50.986;5.826;2024-02-23T18:12:05;0.52;;;0.28;;
26562;SDS011;14217;50.986;5.826;2024-02-23T18:17:08;0.20;;;0.20;;
26562;SDS011;14217;50.986;5.826;2024-02-23T18:22:10;12.18;;;0.60;;
26562;SDS011;14217;50.986;5.826;2024-02-23T18:27:12;9.70;;;1.25;;
26562;SDS011;14217;50.986;5.826;2024-02-23T18:32:14;11.80;;;1.38;;
26562;SDS011;14217;50.986;5.826;2024-02-23T18:37:16;10.85;;;1.00;;
26562;SDS011;14217;50.986;5.826;2024-02-23T18:42:18;18.50;;;2.38;;
26562;SDS011;14217;50.986;5.826;2024-02-23T18:47:20;16.60;;;1.73;;
26562;SDS011;14217;50.986;5.826;2024-02-23T18:52:25;10.93;;;1.35;;
26562;SDS011;14217;50.986;5.826;2024-02-23T18:57:27;11.15;;;1.92;;
26562;SDS011;14217;50.986;5.826;2024-02-23T19:02:31;6.25;;;1.63;;
26562;SDS011;14217;50.986;5.826;2024-02-23T19:07:34;13.65;;;1.30;;
26562;SDS011;14217;50.986;5.826;2024-02-23T19:12:36;4.57;;;1.23;;
26562;SDS011;14217;50.986;5.826;2024-02-23T19:17:40;7.80;;;1.88;;
26562;SDS011;14217;50.986;5.826;2024-02-23T19:22:43;7.15;;;1.73;;
26562;SDS011;14217;50.986;5.826;2024-02-23T19:27:45;3.72;;;0.90;;
26562;SDS011;14217;50.986;5.826;2024-02-23T19:32:47;16.85;;;1.48;;
26562;SDS011;14217;50.986;5.826;2024-02-23T19:37:50;3.33;;;1.10;;
26562;SDS011;14217;50.986;5.826;2024-02-23T19:42:52;4.50;;;0.60;;
26562;SDS011;14217;50.986;5.826;2024-02-23T19:47:55;6.55;;;1.42;;
26562;SDS011;14217;50.986;5.826;2024-02-23T19:52:57;6.78;;;0.80;;
26562;SDS011;14217;50.986;5.826;2024-02-23T19:57:59;3.47;;;0.60;;
26562;SDS011;14217;50.986;5.826;2024-02-23T20:03:02;2.08;;;0.40;;
26562;SDS011;14217;50.986;5.826;2024-02-23T20:08:04;2.90;;;0.85;;
26562;SDS011;14217;50.986;5.826;2024-02-23T20:13:06;4.80;;;1.30;;
26562;SDS011;14217;50.986;5.826;2024-02-23T20:18:09;7.10;;;1.23;;
26562;SDS011;14217;50.986;5.826;2024-02-23T20:23:11;2.95;;;0.60;;
26562;SDS011;14217;50.986;5.826;2024-02-23T20:28:13;1.48;;;0.85;;
26562;SDS011;14217;50.986;5.826;2024-02-23T20:33:15;2.58;;;0.47;;
26562;SDS011;14217;50.986;5.826;2024-02-23T20:38:17;1.35;;;0.10;;
26562;SDS011;14217;50.986;5.826;2024-02-23T20:43:20;4.07;;;0.35;;
26562;SDS011;14217;50.986;5.826;2024-02-23T20:48:23;1.58;;;0.43;;
26562;SDS011;14217;50.986;5.826;2024-02-23T20:53:25;1.17;;;0.60;;
26562;SDS011;14217;50.986;5.826;2024-02-23T20:58:28;4.20;;;0.45;;
26562;SDS011;14217;50.986;5.826;2024-02-23T21:03:30;1.08;;;0.50;;
26562;SDS011;14217;50.986;5.826;2024-02-23T21:08:32;1.85;;;0.20;;
26562;SDS011;14217;50.986;5.826;2024-02-23T21:13:35;1.65;;;0.45;;
26562;SDS011;14217;50.986;5.826;2024-02-23T21:18:37;0.28;;;0.20;;
26562;SDS011;14217;50.986;5.826;2024-02-23T21:23:39;1.45;;;0.35;;
26562;SDS011;14217;50.986;5.826;2024-02-23T21:28:41;1.92;;;0.50;;
26562;SDS011;14217;50.986;5.826;2024-02-23T21:33:43;0.63;;;0.32;;
26562;SDS011;14217;50.986;5.826;2024-02-23T21:38:53;1.30;;;0.13;;
26562;SDS011;14217;50.986;5.826;2024-02-23T21:43:55;0.75;;;0.25;;
26562;SDS011;14217;50.986;5.826;2024-02-23T21:48:57;2.75;;;0.40;;
26562;SDS011;14217;50.986;5.826;2024-02-23T21:54:03;1.45;;;0.40;;
26562;SDS011;14217;50.986;5.826;2024-02-23T21:59:06;0.10;;;0.10;;
26562;SDS011;14217;50.986;5.826;2024-02-23T22:04:08;0.73;;;0.35;;
26562;SDS011;14217;50.986;5.826;2024-02-23T22:09:10;0.70;;;0.38;;
26562;SDS011;14217;50.986;5.826;2024-02-23T22:14:12;1.13;;;0.20;;
26562;SDS011;14217;50.986;5.826;2024-02-23T22:19:14;1.80;;;0.40;;
26562;SDS011;14217;50.986;5.826;2024-02-23T22:24:16;22.13;;;0.57;;
26562;SDS011;14217;50.986;5.826;2024-02-23T22:29:18;0.43;;;0.40;;
26562;SDS011;14217;50.986;5.826;2024-02-23T22:34:21;0.10;;;0.10;;
26562;SDS011;14217;50.986;5.826;2024-02-23T22:39:23;0.65;;;0.20;;
26562;SDS011;14217;50.986;5.826;2024-02-23T22:44:26;0.13;;;0.13;;
26562;SDS011;14217;50.986;5.826;2024-02-23T22:49:27;0.80;;;0.47;;
26562;SDS011;14217;50.986;5.826;2024-02-23T22:54:30;0.65;;;0.20;;
26562;SDS011;14217;50.986;5.826;2024-02-23T22:59:32;3.05;;;0.35;;
26562;SDS011;14217;50.986;5.826;2024-02-23T23:04:34;0.85;;;0.35;;
26562;SDS011;14217;50.986;5.826;2024-02-23T23:09:37;0.28;;;0.10;;
26562;SDS011;14217;50.986;5.826;2024-02-23T23:14:39;0.63;;;0.30;;
26562;SDS011;14217;50.986;5.826;2024-02-23T23:19:46;0.77;;;0.30;;
26562;SDS011;14217;50.986;5.826;2024-02-23T23:24:50;2.17;;;0.20;;
26562;SDS011;14217;50.986;5.826;2024-02-23T23:29:52;2.47;;;0.30;;
26562;SDS011;14217;50.986;5.826;2024-02-23T23:34:54;6.45;;;0.20;;
26562;SDS011;14217;50.986;5.826;2024-02-23T23:39:56;1.90;;;0.43;;
26562;SDS011;14217;50.986;5.826;2024-02-23T23:44:58;0.95;;;0.30;;
26562;SDS011;14217;50.986;5.826;2024-02-23T23:50:00;0.63;;;0.30;;
26562;SDS011;14217;50.986;5.826;2024-02-23T23:55:03;0.70;;;0.40;;
